createdAt,value
2022-10-04T00:00:00.338Z,75
2022-10-04T00:10:00.315Z,75
2022-10-04T00:20:00.398Z,75
2022-10-04T00:30:00.322Z,75
2022-10-04T00:40:00.380Z,76
2022-10-04T00:50:00.320Z,76
2022-10-04T01:00:00.340Z,76
2022-10-04T01:10:00.308Z,76
2022-10-04T01:20:00.366Z,76
2022-10-04T01:30:00.295Z,76
2022-10-04T01:40:00.333Z,77
2022-10-04T01:50:00.365Z,77
2022-10-04T02:00:00.449Z,77
2022-10-04T02:10:00.345Z,77
2022-10-04T02:20:00.362Z,77
2022-10-04T02:30:00.325Z,78
2022-10-04T02:40:00.511Z,77
2022-10-04T02:50:00.401Z,77
2022-10-04T03:00:00.381Z,77
2022-10-04T03:10:00.334Z,77
2022-10-04T03:20:00.305Z,77
2022-10-04T03:30:00.321Z,78
2022-10-04T03:40:00.313Z,78
2022-10-04T03:50:00.365Z,78
2022-10-04T04:00:00.453Z,78
2022-10-04T04:10:00.355Z,78
2022-10-04T04:20:07.315Z,78
2022-10-04T04:30:00.316Z,78
2022-10-04T04:40:00.349Z,79
2022-10-04T04:50:00.353Z,79
2022-10-04T05:00:00.434Z,79
2022-10-04T05:10:00.381Z,79
2022-10-04T05:20:00.363Z,79
2022-10-04T05:30:00.365Z,80
2022-10-04T05:40:00.364Z,80
2022-10-04T05:50:00.358Z,80
2022-10-04T06:00:04.789Z,80
2022-10-04T06:10:00.369Z,81
2022-10-04T06:20:00.330Z,81
2022-10-04T06:30:00.358Z,81
2022-10-04T06:40:00.358Z,81
2022-10-04T06:50:00.312Z,82
2022-10-04T07:00:00.410Z,82
2022-10-04T07:10:00.350Z,83
2022-10-04T07:20:00.351Z,84
2022-10-04T07:30:00.399Z,84
2022-10-04T07:40:00.398Z,85
2022-10-04T07:50:00.341Z,83
2022-10-04T08:00:00.543Z,81
2022-10-04T08:10:00.343Z,72
2022-10-04T08:20:00.349Z,73
2022-10-04T08:30:00.368Z,70
2022-10-04T08:40:00.387Z,64
2022-10-04T08:50:00.353Z,65
2022-10-04T09:00:00.417Z,62
2022-10-04T09:10:00.362Z,63
2022-10-04T09:20:33.775Z,61
2022-10-04T09:30:00.393Z,60
2022-10-04T09:40:00.362Z,58
2022-10-04T09:50:00.377Z,59
2022-10-04T10:00:00.487Z,59
2022-10-04T10:10:00.369Z,57
2022-10-04T10:20:00.357Z,57
2022-10-04T10:30:00.325Z,58
2022-10-04T10:40:00.335Z,56
2022-10-04T10:50:00.312Z,57
2022-10-04T11:00:00.435Z,55
2022-10-04T11:10:00.367Z,54
2022-10-04T11:20:00.523Z,54
2022-10-04T11:30:00.343Z,54
2022-10-04T11:40:00.337Z,52
2022-10-04T11:50:00.372Z,55
2022-10-04T12:00:00.416Z,56
2022-10-04T12:10:01.479Z,55
2022-10-04T12:20:00.331Z,55
2022-10-04T12:30:00.328Z,54
2022-10-04T12:40:00.371Z,54
2022-10-04T12:50:00.351Z,53
2022-10-04T13:00:00.412Z,54
2022-10-04T13:10:23.988Z,54
2022-10-04T13:20:00.372Z,54
2022-10-04T13:30:00.334Z,51
2022-10-04T13:40:00.351Z,52
2022-10-04T13:50:00.343Z,53
2022-10-04T14:00:00.427Z,53
2022-10-04T14:10:00.378Z,53
2022-10-04T14:20:00.508Z,54
2022-10-04T14:30:00.516Z,55
2022-10-04T14:40:00.540Z,56
2022-10-04T14:50:01.203Z,57
2022-10-04T15:00:00.368Z,58
2022-10-04T15:10:00.345Z,59
2022-10-04T15:20:00.340Z,59
2022-10-04T15:30:00.324Z,60
2022-10-04T15:40:00.529Z,61
2022-10-04T15:50:00.297Z,61
2022-10-04T16:00:00.393Z,61
2022-10-04T16:10:00.547Z,62
2022-10-04T16:20:00.326Z,62
2022-10-04T16:30:25.417Z,63
2022-10-04T16:40:00.415Z,63
2022-10-04T16:50:00.336Z,64
2022-10-04T17:00:00.417Z,64
2022-10-04T17:10:00.353Z,64
2022-10-04T17:20:00.341Z,65
2022-10-04T17:30:00.326Z,65
2022-10-04T17:40:06.552Z,66
2022-10-04T17:50:00.382Z,67
2022-10-04T18:00:00.316Z,68
2022-10-04T18:10:00.393Z,68
2022-10-04T18:20:00.335Z,68
2022-10-04T18:30:00.433Z,68
2022-10-04T18:40:00.338Z,69
2022-10-04T18:50:00.350Z,69
2022-10-04T19:00:00.368Z,70
2022-10-04T19:10:00.354Z,70
2022-10-04T19:20:00.379Z,71
2022-10-04T19:30:00.354Z,71
2022-10-04T19:40:00.355Z,71
2022-10-04T19:50:00.352Z,72
2022-10-04T20:00:00.326Z,72
2022-10-04T20:10:00.576Z,73
2022-10-04T20:20:00.344Z,73
2022-10-04T20:30:00.424Z,73
2022-10-04T20:40:00.477Z,73
2022-10-04T20:50:00.341Z,73
2022-10-04T21:00:00.362Z,73
2022-10-04T21:10:00.397Z,73
2022-10-04T21:20:00.324Z,74
2022-10-04T21:30:00.313Z,74
2022-10-04T21:40:00.375Z,74
2022-10-04T21:50:00.359Z,74
2022-10-04T22:00:00.341Z,74
2022-10-04T22:10:00.319Z,75
2022-10-04T22:20:00.835Z,75
2022-10-04T22:30:00.359Z,75
2022-10-04T22:40:00.351Z,75
2022-10-04T22:50:00.404Z,75
2022-10-04T23:00:00.344Z,75
2022-10-04T23:10:00.345Z,75
2022-10-04T23:20:00.328Z,75
2022-10-04T23:30:00.360Z,75
2022-10-04T23:40:00.325Z,76
2022-10-04T23:50:00.413Z,76
